Latest Weather Observations for Bendigo

IDV60801

Issued at 2:02 pm EST Tuesday 26 July 2016 (issued every 30 minutes, with the page automatically refreshed every 10 minutes)

About weather observations | Map of weather stations | Latest weather observations for VIC | Other Formats
Station Details ID: 081123 Name: BENDIGO AIRPORT Lat: -36.74 Lon: 144.33 Height: 208.0 m
Data from the previous 72 hours. | See also: Recent months at Bendigo
Date/Time
EST
Temp
°C
App
Temp
°C
Dew
Point
°C
Rel
Hum
%
Delta-T
°C
Wind Press
QNH
hPa
Press
MSL
hPa
Rain since
9am
mm
Dir  Spd
km/h
Gust
km/h
Spd
kts
Gust
kts
26/02:00pm 8.9 3.2 4.7 75 1.9 NNW 24 35 13 19 1012.1 1012.5 0.0
26/01:30pm 9.6 4.7 5.0 73 2.1 NNW 20 30 11 16 1012.5 1012.9 0.0
26/01:00pm 8.8 3.5 4.8 76 1.8 NNW 22 32 12 17 1013.0 1013.4 0.0
26/12:30pm 8.7 3.3 4.3 74 2.0 NNW 22 30 12 16 1013.6 1014.0 0.0
26/12:00pm 9.2 3.6 5.2 76 1.8 NW 24 32 13 17 1014.0 1014.4 0.0
26/11:51am 8.8 4.4 4.8 76 1.8 NW 17 26 9 14 1014.1 1014.5 0.0
26/11:30am 8.3 3.8 4.1 75 1.9 NW 17 20 9 11 1014.3 1014.7 0.0
26/11:00am 7.7 3.3 5.0 83 1.2 NW 17 24 9 13 1014.8 1015.2 0.0
26/10:30am 6.1 3.2 4.4 89 0.7 NNW 9 15 5 8 1014.8 1015.2 0.0
26/10:00am 5.1 2.1 3.9 92 0.5 NW 9 17 5 9 1015.1 1015.6 0.0
26/09:30am 4.6 0.3 3.4 92 0.5 NW 15 24 8 13 1015.1 1015.6 0.0
26/09:00am 4.6 0.7 3.4 92 0.5 NW 13 24 7 13 1014.9 1015.3 4.6
26/08:30am 4.0 0.8 3.3 95 0.3 NNW 9 13 5 7 1014.7 1015.1 4.6
26/08:00am 3.5 0.8 2.9 96 0.2 N 6 11 3 6 1014.7 1015.1 4.6
26/07:30am 3.0 0.0 2.3 95 0.3 NNW 7 11 4 6 1014.2 1014.6 4.6
26/07:16am 2.5 -0.6 1.6 94 0.4 NNW 7 9 4 5 1014.0 1014.4 4.6
26/07:00am 2.7 0.6 1.8 94 0.4 N 2 7 1 4 1013.6 1014.0 4.6
26/06:34am 3.1 0.1 2.1 93 0.4 NW 7 11 4 6 1013.2 1013.6 4.6
26/06:30am 3.1 -0.3 2.1 93 0.4 NW 9 11 5 6 1013.1 1013.5 4.6
26/06:27am 3.1 -0.3 1.9 92 0.5 NW 9 11 5 6 1013.1 1013.5 4.6
26/06:00am 3.5 0.2 2.2 91 0.5 NNW 9 15 5 8 1012.7 1013.1 4.6
26/05:54am 3.7 0.7 2.2 90 0.6 NNW 7 11 4 6 1012.6 1013.0 4.6
26/05:30am 3.8 0.5 2.2 89 0.6 WNW 9 13 5 7 1012.2 1012.6 4.6
26/05:00am 3.9 -0.2 2.1 88 0.7 NW 13 20 7 11 1011.6 1012.1 4.6
26/04:30am 3.9 -0.2 2.1 88 0.7 NW 13 19 7 10 1011.7 1012.2 4.6
26/04:00am 4.1 -0.4 2.3 88 0.7 NW 15 24 8 13 1011.6 1012.1 4.6
26/03:30am 4.3 0.2 2.2 86 0.8 NW 13 17 7 9 1011.6 1012.1 4.6
26/03:00am 4.9 0.1 2.4 84 1.0 NW 17 26 9 14 1011.5 1012.0 4.6
26/02:30am 5.2 0.4 2.7 84 1.0 WNW 17 26 9 14 1011.6 1012.1 4.6
26/02:00am 5.5 0.8 3.2 85 1.0 NW 17 24 9 13 1011.3 1011.8 4.6
26/01:30am 5.7 1.4 3.0 83 1.1 WNW 15 22 8 12 1010.9 1011.3 4.6
26/01:00am 6.1 1.4 2.9 80 1.3 WNW 17 24 9 13 1010.9 1011.3 4.6
26/12:30am 6.4 1.3 3.2 80 1.4 WNW 19 32 10 17 1010.8 1011.2 4.6
26/12:00am 6.7 1.4 3.0 77 1.6 WNW 20 33 11 18 1010.6 1011.0 4.6
 
Date/Time
EST
Temp
°C
App
Temp
°C
Dew
Point
°C
Rel
Hum
%
Delta-T
°C
Wind Press
QNH
hPa
Press
MSL
hPa
Rain since
9am
mm
Dir  Spd
km/h
Gust
km/h
Spd
kts
Gust
kts
25/11:30pm 6.9 1.6 2.8 75 1.7 WNW 20 28 11 15 1010.3 1010.7 4.6
25/11:00pm 7.2 2.0 3.4 77 1.6 WNW 20 33 11 18 1009.9 1010.3 4.6
25/10:30pm 7.5 2.3 3.7 77 1.6 WNW 20 32 11 17 1009.8 1010.2 4.6
25/10:00pm 8.0 1.7 4.0 76 1.8 WNW 26 43 14 23 1009.5 1009.9 4.6
25/09:30pm 8.0 3.2 4.4 78 1.6 WNW 19 32 10 17 1009.4 1009.8 4.6
25/09:00pm 8.0 3.1 4.9 81 1.4 NW 20 30 11 16 1009.1 1009.5 4.6
25/08:30pm 7.9 3.1 5.5 85 1.1 NW 20 33 11 18 1009.0 1009.4 4.4
25/08:00pm 8.0 3.4 5.5 84 1.1 WNW 19 24 10 13 1008.7 1009.1 4.4
25/07:30pm 8.0 2.9 5.8 86 1.0 NW 22 35 12 19 1008.4 1008.8 4.4
25/07:16pm 8.4 3.0 6.5 88 0.9 NW 24 41 13 22 1008.5 1008.9 4.4
25/07:02pm 8.9 3.0 7.4 90 0.7 WNW 28 46 15 25 1008.4 1008.8 3.6
25/07:00pm 8.9 3.7 7.4 90 0.7 WNW 24 46 13 25 1008.4 1008.8 3.4
25/06:44pm 9.3 4.8 7.1 86 1.0 NW 20 32 11 17 1007.8 1008.2 1.6
25/06:30pm 9.6 4.3 6.7 82 1.4 NW 24 35 13 19 1007.2 1007.6 0.8
25/06:00pm 10.4 4.3 6.4 76 1.9 NNW 28 39 15 21 1006.3 1006.7 0.0
25/05:30pm 10.5 4.4 6.6 77 1.9 NNW 28 46 15 25 1006.2 1006.6 0.0
25/05:27pm 10.5 4.4 6.6 77 1.9 NNW 28 46 15 25 1006.2 1006.6 0.0
25/05:00pm 10.3 3.9 7.0 80 1.6 N 30 46 16 25 1006.6 1007.0 0.0
25/04:37pm 9.9 4.3 7.3 84 1.2 NNW 26 39 14 21 1007.0 1007.3 0.0
25/04:30pm 9.9 4.3 7.3 84 1.2 NNW 26 41 14 22 1006.8 1007.1 0.0
25/04:15pm 9.7 3.8 7.3 85 1.2 NNW 28 43 15 23 1007.3 1007.7 0.0
25/04:13pm 9.7 3.8 7.3 85 1.2 NNW 28 43 15 23 1007.3 1007.7 0.0
25/04:04pm 9.6 2.9 7.2 85 1.1 NNW 32 57 17 31 1007.6 1008.0 0.0
25/04:00pm 9.8 3.4 7.1 83 1.3 NNW 30 57 16 31 1007.7 1008.1 0.0
25/03:30pm 9.9 4.3 7.2 83 1.3 NNW 26 35 14 19 1007.9 1008.3 0.0
25/03:03pm 10.1 4.0 6.4 78 1.7 NNW 28 46 15 25 1008.1 1008.5 0.0
25/03:00pm 10.3 3.8 6.5 77 1.8 NNW 30 44 16 24 1008.1 1008.5 0.0
25/02:30pm 10.6 4.7 5.6 71 2.3 NNW 26 41 14 22 1008.4 1008.8 0.0
25/02:07pm 10.5 3.8 5.5 71 2.3 NNW 30 48 16 26 1008.4 1008.8 0.0
25/02:00pm 10.7 4.7 5.5 70 2.4 NNW 26 44 14 24 1008.6 1009.0 0.0
25/01:30pm 11.1 5.5 5.2 67 2.7 NW 24 35 13 19 1009.1 1009.5 0.0
25/01:00pm 11.5 6.2 5.2 65 2.9 NW 22 43 12 23 1009.8 1010.2 0.0
25/12:30pm 10.6 4.9 4.9 68 2.6 NW 24 33 13 18 1010.1 1010.5 0.0
25/12:00pm 10.7 5.0 5.0 68 2.6 NW 24 35 13 19 1010.8 1011.2 0.0
25/11:30am 10.1 5.0 5.9 75 2.0 WNW 22 32 12 17 1011.1 1011.6 0.0
25/11:00am 9.7 5.9 5.7 76 1.9 NW 15 22 8 12 1011.2 1011.7 0.0
25/10:51am 9.1 4.9 5.7 79 1.6 WNW 17 22 9 12 1011.2 1011.7 0.0
25/10:30am 9.0 4.9 6.4 84 1.2 WNW 17 32 9 17 1011.3 1011.8 0.0
25/10:00am 8.4 5.5 6.5 88 0.9 WNW 11 22 6 12 1011.3 1011.8 0.0
25/09:30am 7.5 4.2 6.3 92 0.6 NW 13 20 7 11 1011.2 1011.7 0.0
25/09:00am 6.9 3.5 6.0 94 0.4 WNW 13 20 7 11 1011.0 1011.4 5.2
25/08:30am 6.7 3.7 6.1 96 0.3 WNW 11 19 6 10 1010.9 1011.3 5.2
25/08:00am 6.4 3.0 5.8 96 0.3 WNW 13 19 7 10 1010.7 1011.1 5.2
25/07:39am 6.3 3.3 5.9 97 0.2 WNW 11 20 6 11 1010.3 1010.7 5.2
25/07:30am 6.2 2.4 5.8 97 0.2 WNW 15 20 8 11 1010.3 1010.7 5.2
25/07:00am 6.1 2.7 5.7 97 0.2 WNW 13 19 7 10 1009.8 1010.2 5.0
25/06:30am 6.0 3.3 5.6 97 0.2 NNW 9 13 5 7 1009.4 1009.8 5.0
25/06:00am 5.9 3.1 5.3 96 0.3 NW 9 15 5 8 1008.9 1009.3 5.0
25/05:35am 5.9 2.3 5.2 95 0.3 NW 13 19 7 10 1008.8 1009.2 5.0
25/05:30am 5.9 2.7 5.2 95 0.3 NW 11 19 6 10 1008.8 1009.2 5.0
25/05:00am 5.7 3.2 5.0 95 0.3 NNW 7 11 4 6 1008.4 1008.8 5.0
25/04:43am 5.7 3.2 5.0 95 0.3 NNW 7 11 4 6 1008.2 1008.6 5.0
25/04:30am 5.5 3.2 4.8 95 0.3 NNW 6 9 3 5 1008.2 1008.6 5.0
25/04:00am 5.5 2.6 4.5 93 0.4 NW 9 13 5 7 1007.7 1008.1 4.8
25/03:43am 5.7 2.8 4.7 93 0.4 WNW 9 15 5 8 1007.6 1008.0 4.8
25/03:30am 6.0 3.2 5.1 94 0.4 NW 9 13 5 7 1007.6 1008.0 4.8
25/03:02am 6.2 3.4 5.0 92 0.5 WNW 9 15 5 8 1007.5 1007.9 4.8
25/03:00am 6.2 3.0 5.0 92 0.5 WNW 11 15 6 8 1007.5 1007.9 4.8
25/02:53am 6.3 2.7 5.1 92 0.5 WNW 13 19 7 10 1007.4 1007.8 4.8
25/02:40am 6.6 2.8 5.6 93 0.4 WNW 15 20 8 11 1007.3 1007.7 4.8
25/02:30am 6.6 3.2 5.9 95 0.3 WNW 13 19 7 10 1007.3 1007.7 4.8
25/02:00am 6.6 3.2 5.9 95 0.3 WNW 13 20 7 11 1007.0 1007.3 4.8
25/01:48am 6.6 2.4 5.9 95 0.3 NW 17 28 9 15 1006.9 1007.2 4.8
25/01:46am 6.6 2.4 5.9 95 0.3 NW 17 32 9 17 1006.9 1007.2 4.8
25/01:30am 6.6 2.8 5.9 95 0.3 NW 15 20 8 11 1006.5 1006.9 4.8
25/01:18am 6.5 2.7 5.8 95 0.3 NNW 15 22 8 12 1006.5 1006.9 4.8
25/01:00am 6.5 2.7 5.8 95 0.3 NNW 15 24 8 13 1006.4 1006.8 4.8
25/12:30am 6.4 2.6 5.7 95 0.3 NNW 15 20 8 11 1006.4 1006.8 4.8
25/12:21am 6.4 2.6 5.7 95 0.3 NNW 15 20 8 11 1006.4 1006.8 4.8
25/12:00am 6.4 2.9 5.5 94 0.4 NNW 13 20 7 11 1006.4 1006.8 4.6
 
Date/Time
EST
Temp
°C
App
Temp
°C
Dew
Point
°C
Rel
Hum
%
Delta-T
°C
Wind Press
QNH
hPa
Press
MSL
hPa
Rain since
9am
mm
Dir  Spd
km/h
Gust
km/h
Spd
kts
Gust
kts
24/11:53pm 6.5 3.0 5.5 93 0.4 NNW 13 17 7 9 1006.5 1006.9 4.6
24/11:30pm 6.5 3.0 5.3 92 0.5 NNW 13 20 7 11 1006.5 1006.9 4.6
24/11:00pm 6.6 2.7 5.4 92 0.5 NNW 15 22 8 12 1006.3 1006.7 4.6
24/10:30pm 6.6 1.8 5.4 92 0.5 NNW 20 32 11 17 1006.4 1006.8 4.6
24/10:00pm 6.8 2.6 5.7 93 0.5 NNW 17 28 9 15 1006.5 1006.9 4.6
24/09:30pm 6.8 2.0 5.7 93 0.5 NNW 20 32 11 17 1006.5 1006.9 4.6
24/09:00pm 6.9 2.3 5.7 92 0.5 NNW 19 32 10 17 1006.5 1006.9 4.6
24/08:30pm 7.0 2.8 5.8 92 0.5 NW 17 22 9 12 1006.6 1007.0 4.6
24/08:00pm 7.2 3.1 6.1 93 0.5 NW 17 28 9 15 1006.8 1007.1 4.6
24/07:30pm 7.2 2.7 6.3 94 0.4 NNW 19 26 10 14 1006.4 1006.8 4.6
24/07:00pm 6.9 2.8 6.0 94 0.4 N 17 28 9 15 1006.1 1006.5 4.6
24/06:48pm 6.9 2.7 5.8 93 0.5 N 17 28 9 15 1006.1 1006.5 4.4
24/06:30pm 6.8 3.0 5.7 93 0.5 N 15 26 8 14 1006.0 1006.4 4.2
24/06:00pm 6.6 3.5 5.6 93 0.5 N 11 17 6 9 1005.8 1006.2 4.2
24/05:53pm 6.6 3.1 5.6 93 0.4 N 13 17 7 9 1005.9 1006.3 4.2
24/05:30pm 6.6 1.8 5.4 92 0.5 NW 20 32 11 17 1006.4 1006.8 3.2
24/05:15pm 7.1 1.4 4.9 86 1.0 NNW 24 56 13 30 1006.4 1006.8 1.6
24/05:13pm 7.6 2.3 4.9 83 1.2 NNW 22 56 12 30 1006.4 1006.8 1.4
24/05:00pm 9.1 5.2 5.5 78 1.7 N 15 19 8 10 1005.6 1006.0 1.2
24/04:30pm 9.6 5.1 4.4 70 2.3 N 17 22 9 12 1005.6 1006.0 1.2
24/04:00pm 9.4 5.8 5.2 75 1.9 N 13 24 7 13 1005.6 1006.0 1.2
24/03:34pm 8.2 5.0 5.0 80 1.4 NNW 11 15 6 8 1006.2 1006.6 1.0
24/03:30pm 8.2 5.0 5.1 81 1.4 NW 11 19 6 10 1006.3 1006.7 1.0
24/03:16pm 8.1 1.9 4.5 78 1.6 NW 26 39 14 21 1006.9 1007.2 1.0
24/03:00pm 10.7 5.7 4.4 65 2.9 N 20 33 11 18 1006.5 1006.9 0.0
24/02:30pm 10.6 5.2 4.3 65 2.8 N 22 35 12 19 1006.8 1007.1 0.0
24/02:00pm 10.4 5.4 4.8 68 2.6 NNW 20 32 11 17 1007.4 1007.8 0.0
24/01:30pm 10.2 4.1 4.8 69 2.5 NNW 26 37 14 20 1008.0 1008.4 0.0
24/01:00pm 9.9 4.2 4.7 70 2.4 NNW 24 41 13 22 1008.7 1009.1 0.0
24/12:30pm 10.0 4.4 5.2 72 2.2 N 24 35 13 19 1009.3 1009.7 0.0
24/12:00pm 9.2 4.1 4.2 71 2.2 N 20 26 11 14 1009.8 1010.2 0.0
24/11:30am 8.6 3.4 3.6 71 2.2 N 20 30 11 16 1010.5 1010.9 0.0
24/11:00am 7.5 2.6 4.1 79 1.5 N 19 24 10 13 1011.4 1011.9 0.0
24/10:30am 6.3 3.2 3.6 83 1.2 N 9 13 5 7 1011.5 1012.0 0.0
24/10:00am 4.9 3.1 3.4 90 0.6 NNE 2 9 1 5 1011.7 1012.2 0.0
24/09:30am 3.9 0.7 3.3 96 0.2 N 9 13 5 7 1011.9 1012.3 0.0
24/09:00am 2.5 0.9 2.2 98 0.1 CALM 0 0 0 0 1012.0 1012.4 0.2
24/08:36am 2.0 0.3 1.7 98 0.1 CALM 0 0 0 0 1012.3 1012.7 0.2
24/08:30am 1.9 0.2 1.6 98 0.1 CALM 0 0 0 0 1012.3 1012.7 0.2
24/08:00am 1.4 -1.6 1.1 98 0.1 NE 6 7 3 4 1012.1 1012.5 0.0
24/07:30am 1.4 -0.4 1.1 98 0.1 CALM 0 0 0 0 1012.1 1012.5 0.0
24/07:00am 1.0 -0.9 0.7 98 0.1 CALM 0 0 0 0 1012.2 1012.6 0.0
24/06:42am 0.6 -1.4 0.2 97 0.1 CALM 0 0 0 0 1012.3 1012.7 0.0
24/06:41am 0.6 -1.4 0.2 97 0.1 CALM 0 0 0 0 1012.3 1012.7 0.0
24/06:30am 0.6 -1.4 0.2 97 0.1 CALM 0 0 0 0 1012.2 1012.6 0.0
24/06:27am 0.5 -1.5 0.1 97 0.1 CALM 0 0 0 0 1012.1 1012.5 0.0
24/06:00am 0.0 -2.0 -0.4 97 0.1 CALM 0 0 0 0 1011.9 1012.3 0.0
24/05:30am -0.6 -2.7 -1.0 97 0.1 CALM 0 0 0 0 1011.9 1012.3 0.0
24/05:27am -0.5 -2.6 -0.9 97 0.1 CALM 0 0 0 0 1011.9 1012.3 0.0
24/05:13am -0.4 -2.5 -0.8 97 0.1 CALM 0 0 0 0 1012.0 1012.4 0.0
24/05:00am -0.2 -2.3 -0.6 97 0.1 CALM 0 0 0 0 1011.9 1012.3 0.0
24/04:30am -0.2 -2.3 -0.8 96 0.2 CALM 0 0 0 0 1012.2 1012.6 0.0
24/04:00am 0.2 -1.8 -0.4 96 0.2 CALM 0 0 0 0 1012.7 1013.1 0.0
24/03:30am 0.1 -2.0 -0.5 96 0.2 CALM 0 0 0 0 1012.9 1013.3 0.0
24/03:29am 0.0 -2.1 -0.6 96 0.2 CALM 0 0 0 0 1012.9 1013.3 0.0
24/03:02am 0.1 -2.0 -0.5 96 0.2 CALM 0 0 0 0 1013.5 1013.9 0.0
24/03:00am 0.0 -2.1 -0.6 96 0.2 CALM 0 0 0 0 1013.4 1013.8 0.0
24/02:30am -0.3 -2.4 -0.9 96 0.2 CALM 0 0 0 0 1013.4 1013.8 0.0
24/02:05am 0.4 -1.6 -0.2 96 0.2 CALM 0 0 0 0 1013.4 1013.8 0.0
24/02:00am 0.0 -2.1 -0.6 96 0.2 CALM 0 0 0 0 1013.4 1013.8 0.0
24/01:32am 0.4 -1.6 -0.3 95 0.3 CALM 0 0 0 0 1013.5 1013.9 0.0
24/01:30am 0.3 -1.7 -0.4 95 0.3 CALM 0 0 0 0 1013.5 1013.9 0.0
24/01:00am 0.6 -1.4 -0.1 95 0.3 CALM 0 0 0 0 1013.4 1013.8 0.0
24/12:30am 1.3 -0.6 0.6 95 0.3 CALM 0 0 0 0 1013.5 1013.9 0.0
24/12:00am 1.3 -0.6 0.4 94 0.3 CALM 0 0 0 0 1013.6 1014.0 0.0
 
Date/Time
EST
Temp
°C
App
Temp
°C
Dew
Point
°C
Rel
Hum
%
Delta-T
°C
Wind Press
QNH
hPa
Press
MSL
hPa
Rain since
9am
mm
Dir  Spd
km/h
Gust
km/h
Spd
kts
Gust
kts
23/11:30pm 1.6 -0.3 0.7 94 0.3 CALM 0 0 0 0 1013.6 1014.0 0.0
23/11:00pm 1.9 0.1 0.9 93 0.4 CALM 0 0 0 0 1013.6 1014.0 0.0
23/10:30pm 1.9 0.0 0.6 91 0.5 CALM 0 0 0 0 1013.6 1014.0 0.0
23/10:00pm 2.8 1.0 0.9 87 0.7 CALM 0 0 0 0 1013.8 1014.2 0.0
23/09:30pm 3.1 1.2 0.8 85 0.9 CALM 0 0 0 0 1013.8 1014.2 0.0
23/09:00pm 5.0 3.2 1.5 78 1.4 CALM 0 0 0 0 1013.8 1014.2 0.0
23/08:30pm 5.8 2.9 1.3 73 1.8 W 6 11 3 6 1013.6 1014.0 0.0
23/08:00pm 6.4 2.8 0.7 67 2.3 W 9 13 5 7 1013.3 1013.7 0.0
23/07:30pm 6.5 2.9 0.4 65 2.4 NW 9 15 5 8 1013.0 1013.4 0.0
23/07:00pm 7.6 4.0 0.8 62 2.8 WNW 9 15 5 8 1012.7 1013.1 0.0
23/06:30pm 8.0 3.6 0.3 58 3.1 W 13 22 7 12 1012.2 1012.6 0.0
23/06:00pm 8.3 4.3 0.3 57 3.2 WNW 11 17 6 9 1011.6 1012.1 0.0
23/05:30pm 9.0 3.8 0.2 54 3.6 WNW 17 20 9 11 1011.3 1011.8 0.0
23/05:00pm 9.3 4.0 -0.6 50 3.9 WNW 17 24 9 13 1010.9 1011.3 0.0
23/04:30pm 9.5 3.7 -1.2 47 4.2 WNW 19 30 10 16 1010.6 1011.0 0.0
23/04:00pm 9.9 3.5 -1.8 44 4.6 WSW 22 30 12 16 1010.5 1010.9 0.0
23/03:30pm 10.2 3.7 -2.1 42 4.8 W 22 37 12 20 1010.1 1010.5 0.0
23/03:00pm 10.6 4.2 -1.4 43 4.8 W 22 30 12 16 1009.6 1010.0 0.0
23/02:30pm 10.1 2.7 -1.0 46 4.4 W 28 41 15 22 1009.1 1009.5 0.0

Other Formats:

Comma delimited format used in spreadsheet applications
http://www.bom.gov.au/fwo/IDV60801/IDV60801.94855.axf

JavaScript Object Notation format (JSON) in row-major order
http://www.bom.gov.au/fwo/IDV60801/IDV60801.94855.json